Time;durP1;ratioP1;P1;durP2;ratioP2;P2;SDS_P1;SDS_P2;PMS_P1;PMS_P2;Temp;Humidity;BMP_temperature;BMP_pressure;BME280_temperature;BME280_humidity;BME280_pressure;Samples;Min_cycle;Max_cycle;Signal;HPM_P1;HPM_P2
2022/05/01 00:00:35;;;;;;;13.52;11.40;;;;;;;;;;5053152;28;20445;-71
2022/05/01 00:03:02;;;;;;;9.68;8.77;;;;;;;;;;5053405;28;20191;-72
2022/05/01 00:05:29;;;;;;;13.52;8.20;;;;;;;;;;5052801;28;20203;-71
2022/05/01 00:07:58;;;;;;;7.90;7.10;;;;;;;;;;5053180;28;20656;-71
2022/05/01 00:10:27;;;;;;;6.70;6.10;;;;;;;;;;5052775;28;20445;-71
2022/05/01 00:12:54;;;;;;;7.97;6.63;;;;;;;;;;5053396;28;20850;-71
2022/05/01 00:15:22;;;;;;;8.57;6.30;;;;;;;;;;5054768;28;20294;-72
2022/05/01 00:17:50;;;;;;;7.07;5.00;;;;;;;;;;5056583;28;20215;-71
2022/05/01 00:20:17;;;;;;;8.57;6.60;;;;;;;;;;5056835;28;20730;-72
2022/05/01 00:22:44;;;;;;;7.50;6.75;;;;;;;;;;5057562;28;20199;-71
2022/05/01 00:25:13;;;;;;;7.00;6.40;;;;;;;;;;5056964;28;20191;-71
2022/05/01 00:27:41;;;;;;;5.50;4.88;;;;;;;;;;5057266;28;20210;-71
2022/05/01 00:30:09;;;;;;;7.00;6.30;;;;;;;;;;5056343;28;20206;-72
2022/05/01 00:38:02;;;;;;;6.85;6.05;;;;;;;;;;5056380;28;20242;-71
2022/05/01 00:40:29;;;;;;;8.30;7.00;;;;;;;;;;5056483;28;20289;-71
2022/05/01 00:43:01;;;;;;;7.00;5.90;;;;;;;;;;5056539;28;20451;-72
2022/05/01 00:45:28;;;;;;;7.15;5.85;;;;;;;;;;5056834;28;20468;-71
2022/05/01 00:47:56;;;;;;;14.80;6.45;;;;;;;;;;5057035;28;20260;-71
2022/05/01 00:50:23;;;;;;;6.50;5.63;;;;;;;;;;5055982;28;20321;-71
2022/05/01 00:52:50;;;;;;;8.60;6.35;;;;;;;;;;5056328;28;20200;-72
2022/05/01 00:55:18;;;;;;;6.95;6.00;;;;;;;;;;5056538;28;20285;-72
2022/05/01 00:57:45;;;;;;;10.35;6.65;;;;;;;;;;5056262;28;20222;-71
2022/05/01 01:00:16;;;;;;;7.85;6.65;;;;;;;;;;5056488;28;20216;-71
2022/05/01 01:02:43;;;;;;;7.20;6.50;;;;;;;;;;5055878;28;20281;-71
2022/05/01 01:05:11;;;;;;;10.07;5.90;;;;;;;;;;5055708;28;20652;-71
2022/05/01 01:07:39;;;;;;;7.57;6.75;;;;;;;;;;5055755;28;20205;-71
2022/05/01 01:10:07;;;;;;;8.50;5.38;;;;;;;;;;5056575;28;20284;-71
2022/05/01 01:15:20;;;;;;;9.00;5.63;;;;;;;;;;5055668;28;20643;-71
2022/05/01 01:17:52;;;;;;;8.83;7.17;;;;;;;;;;5055463;28;20313;-71
2022/05/01 01:20:22;;;;;;;6.45;5.85;;;;;;;;;;5055722;28;20525;-71
2022/05/01 01:22:51;;;;;;;7.38;6.30;;;;;;;;;;5056134;28;20606;-71
2022/05/01 01:25:20;;;;;;;8.43;6.45;;;;;;;;;;5055696;28;20251;-71
2022/05/01 01:27:47;;;;;;;6.57;5.60;;;;;;;;;;5055367;28;20203;-71
2022/05/01 01:33:00;;;;;;;7.53;5.88;;;;;;;;;;5055360;28;20184;-70
2022/05/01 01:35:29;;;;;;;7.20;5.63;;;;;;;;;;5055104;28;20480;-71
2022/05/01 01:37:57;;;;;;;6.70;6.05;;;;;;;;;;5055101;28;20234;-71
2022/05/01 01:40:25;;;;;;;6.88;6.07;;;;;;;;;;5054994;28;20284;-71
2022/05/01 01:42:54;;;;;;;7.20;6.32;;;;;;;;;;5055782;28;20203;-71
2022/05/01 01:45:22;;;;;;;9.70;6.05;;;;;;;;;;5054929;28;20199;-71
2022/05/01 01:47:49;;;;;;;7.53;6.25;;;;;;;;;;5054998;28;20205;-71
2022/05/01 01:50:17;;;;;;;8.40;6.70;;;;;;;;;;5055096;28;20204;-71
2022/05/01 01:52:46;;;;;;;9.98;6.65;;;;;;;;;;5055195;28;20200;-71
2022/05/01 01:55:16;;;;;;;9.63;6.45;;;;;;;;;;5055496;28;20206;-71
2022/05/01 01:57:45;;;;;;;10.02;6.90;;;;;;;;;;5055017;28;20217;-71
2022/05/01 02:00:13;;;;;;;6.75;6.03;;;;;;;;;;5054608;28;20255;-70
2022/05/01 02:02:40;;;;;;;11.77;5.97;;;;;;;;;;5055014;28;20204;-71
2022/05/01 02:05:07;;;;;;;8.80;6.47;;;;;;;;;;5054677;28;20205;-70
2022/05/01 02:07:35;;;;;;;8.35;6.57;;;;;;;;;;5054816;28;20201;-71
2022/05/01 02:10:03;;;;;;;9.52;6.03;;;;;;;;;;5054586;28;20198;-70
2022/05/01 02:12:33;;;;;;;9.32;7.30;;;;;;;;;;5054370;28;20286;-71
2022/05/01 02:15:00;;;;;;;7.40;6.50;;;;;;;;;;5055172;28;20252;-71
2022/05/01 02:17:27;;;;;;;7.93;6.68;;;;;;;;;;5054260;28;20239;-70
2022/05/01 02:19:54;;;;;;;6.70;6.10;;;;;;;;;;5054628;28;20210;-71
2022/05/01 02:22:21;;;;;;;11.07;6.80;;;;;;;;;;5054546;28;20209;-71
2022/05/01 02:24:49;;;;;;;10.93;7.13;;;;;;;;;;5055075;28;20268;-71
2022/05/01 02:27:17;;;;;;;9.88;6.78;;;;;;;;;;5054647;28;20672;-70
2022/05/01 02:29:45;;;;;;;8.70;7.07;;;;;;;;;;5055006;28;20194;-71
2022/05/01 02:32:12;;;;;;;8.32;6.60;;;;;;;;;;5054358;28;20201;-68
2022/05/01 02:34:40;;;;;;;7.18;6.40;;;;;;;;;;5054495;28;20209;-71
2022/05/01 02:37:07;;;;;;;11.23;7.13;;;;;;;;;;5053310;28;20194;-70
2022/05/01 02:39:34;;;;;;;7.53;6.70;;;;;;;;;;5054246;28;20187;-71
2022/05/01 02:42:01;;;;;;;7.72;6.85;;;;;;;;;;5054159;28;20285;-71
2022/05/01 02:44:29;;;;;;;10.38;7.43;;;;;;;;;;5054383;28;20200;-71
2022/05/01 02:46:57;;;;;;;6.95;6.32;;;;;;;;;;5054165;28;20197;-71
2022/05/01 02:49:24;;;;;;;9.40;7.22;;;;;;;;;;5054631;28;20212;-70
2022/05/01 02:51:53;;;;;;;7.72;6.38;;;;;;;;;;5053977;28;20193;-71
2022/05/01 02:54:21;;;;;;;6.68;6.07;;;;;;;;;;5053706;28;20197;-71
2022/05/01 02:56:49;;;;;;;7.10;6.35;;;;;;;;;;5054476;28;20204;-71
2022/05/01 02:59:16;;;;;;;9.90;7.20;;;;;;;;;;5054121;28;20701;-72
2022/05/01 03:01:44;;;;;;;9.77;6.03;;;;;;;;;;5053575;28;20647;-72
2022/05/01 03:04:13;;;;;;;7.95;6.40;;;;;;;;;;5053895;28;20201;-71
2022/05/01 03:06:40;;;;;;;6.28;5.68;;;;;;;;;;5053781;28;20219;-72
2022/05/01 03:09:08;;;;;;;8.05;7.25;;;;;;;;;;5053961;28;20194;-71
2022/05/01 03:11:35;;;;;;;7.47;6.43;;;;;;;;;;5053750;28;20194;-70
2022/05/01 03:14:02;;;;;;;10.65;7.65;;;;;;;;;;5053422;28;20673;-70
2022/05/01 03:16:29;;;;;;;12.15;6.93;;;;;;;;;;5053629;28;20191;-70
2022/05/01 03:24:44;;;;;;;8.48;7.68;;;;;;;;;;5011805;28;20201;-70
2022/05/01 03:27:11;;;;;;;7.50;5.63;;;;;;;;;;5011754;28;20200;-71
2022/05/01 03:29:39;;;;;;;7.43;6.60;;;;;;;;;;5030369;28;20208;-70
2022/05/01 03:32:07;;;;;;;7.45;6.68;;;;;;;;;;5053849;28;20288;-71
2022/05/01 03:34:37;;;;;;;7.15;6.45;;;;;;;;;;5054189;28;20202;-71
2022/05/01 03:37:07;;;;;;;8.18;7.35;;;;;;;;;;5052935;28;20199;-71
2022/05/01 03:39:34;;;;;;;9.85;6.20;;;;;;;;;;5053086;28;20231;-71
2022/05/01 03:42:02;;;;;;;8.02;6.28;;;;;;;;;;5053383;28;20193;-70
2022/05/01 03:44:29;;;;;;;8.23;7.05;;;;;;;;;;5053556;28;20200;-70
2022/05/01 03:46:56;;;;;;;14.00;6.72;;;;;;;;;;5053735;28;20316;-71
2022/05/01 03:49:23;;;;;;;9.77;6.30;;;;;;;;;;5053258;28;20198;-70
2022/05/01 03:51:51;;;;;;;10.43;7.63;;;;;;;;;;5057366;28;20194;-71
2022/05/01 03:54:20;;;;;;;7.13;6.30;;;;;;;;;;5057071;28;20195;-71
2022/05/01 03:56:47;;;;;;;10.05;6.40;;;;;;;;;;5057038;28;20208;-71
2022/05/01 03:59:14;;;;;;;8.32;6.80;;;;;;;;;;5056970;28;20221;-71
2022/05/01 04:01:42;;;;;;;9.43;6.65;;;;;;;;;;5057327;28;20552;-71
2022/05/01 04:04:09;;;;;;;7.80;7.07;;;;;;;;;;5057155;28;20221;-71
2022/05/01 04:06:37;;;;;;;8.70;7.18;;;;;;;;;;5057412;28;20207;-71
2022/05/01 04:09:05;;;;;;;7.93;6.90;;;;;;;;;;5056987;28;20220;-70
2022/05/01 04:11:34;;;;;;;7.95;7.13;;;;;;;;;;5057009;28;20283;-70
2022/05/01 04:14:01;;;;;;;10.98;8.70;;;;;;;;;;5056961;28;20198;-71
2022/05/01 04:16:28;;;;;;;11.30;8.07;;;;;;;;;;5057102;28;20690;-70
2022/05/01 04:18:56;;;;;;;9.70;8.07;;;;;;;;;;5056810;28;20249;-71
2022/05/01 04:21:23;;;;;;;9.10;8.20;;;;;;;;;;5056948;28;20284;-70
2022/05/01 04:23:51;;;;;;;10.77;7.05;;;;;;;;;;5056510;28;20205;-70
2022/05/01 04:26:18;;;;;;;11.38;8.88;;;;;;;;;;5056831;28;20281;-70
2022/05/01 04:31:28;;;;;;;12.73;7.95;;;;;;;;;;5056443;28;20182;-72
2022/05/01 04:33:55;;;;;;;9.65;7.95;;;;;;;;;;5056888;28;20593;-73
2022/05/01 04:36:23;;;;;;;8.85;7.60;;;;;;;;;;5056556;28;20563;-70
2022/05/01 04:38:50;;;;;;;9.80;8.45;;;;;;;;;;5056039;28;20233;-71
2022/05/01 04:41:18;;;;;;;12.40;8.20;;;;;;;;;;5056574;28;20198;-70
2022/05/01 04:43:47;;;;;;;11.43;7.95;;;;;;;;;;5056657;28;20203;-70
2022/05/01 04:46:14;;;;;;;12.93;9.07;;;;;;;;;;5055671;28;20248;-70
2022/05/01 04:48:41;;;;;;;10.55;9.45;;;;;;;;;;5055741;28;20324;-70
2022/05/01 04:51:09;;;;;;;12.10;8.30;;;;;;;;;;5055979;28;20281;-69
2022/05/01 04:53:37;;;;;;;12.63;9.25;;;;;;;;;;5055994;28;20206;-69
2022/05/01 04:58:48;;;;;;;12.20;10.77;;;;;;;;;;5055583;28;20601;-70
2022/05/01 05:01:15;;;;;;;9.90;8.57;;;;;;;;;;5055055;28;20656;-70
2022/05/01 05:03:42;;;;;;;11.07;9.18;;;;;;;;;;5055609;28;20282;-70
2022/05/01 05:06:09;;;;;;;14.10;9.23;;;;;;;;;;5056060;28;20222;-70
2022/05/01 05:11:21;;;;;;;10.20;8.90;;;;;;;;;;5055815;28;20690;-70
2022/05/01 05:13:52;;;;;;;17.08;10.23;;;;;;;;;;5055798;28;20194;-69
2022/05/01 05:16:19;;;;;;;10.85;8.95;;;;;;;;;;5055689;28;20653;-70
2022/05/01 05:18:46;;;;;;;13.60;10.35;;;;;;;;;;5055848;28;20311;-70
2022/05/01 05:21:14;;;;;;;13.57;9.77;;;;;;;;;;5055657;28;20203;-70
2022/05/01 05:23:41;;;;;;;12.00;9.80;;;;;;;;;;5055067;28;20674;-70
2022/05/01 05:26:08;;;;;;;11.73;9.60;;;;;;;;;;5055650;28;20221;-70
2022/05/01 05:28:35;;;;;;;12.05;9.57;;;;;;;;;;5055271;28;20205;-70
2022/05/01 05:31:04;;;;;;;10.73;9.52;;;;;;;;;;5055842;28;20195;-70
2022/05/01 05:33:32;;;;;;;18.73;10.70;;;;;;;;;;5055176;28;20199;-70
2022/05/01 05:35:59;;;;;;;16.52;10.52;;;;;;;;;;5055468;28;20209;-70
2022/05/01 05:38:26;;;;;;;15.63;10.50;;;;;;;;;;5055345;28;20244;-71
2022/05/01 05:40:54;;;;;;;16.65;10.65;;;;;;;;;;5055280;28;20194;-71
2022/05/01 05:43:21;;;;;;;12.90;9.90;;;;;;;;;;5054745;28;20257;-71
2022/05/01 05:45:49;;;;;;;12.40;10.50;;;;;;;;;;5055258;28;20204;-69
2022/05/01 05:48:17;;;;;;;16.42;11.07;;;;;;;;;;5054917;28;20657;-70
2022/05/01 05:50:44;;;;;;;12.55;10.65;;;;;;;;;;5055174;28;20198;-70
2022/05/01 05:53:12;;;;;;;14.60;11.40;;;;;;;;;;5055405;28;20289;-70
2022/05/01 05:55:39;;;;;;;17.10;10.88;;;;;;;;;;5054871;28;20292;-70
2022/05/01 05:58:06;;;;;;;15.40;11.40;;;;;;;;;;5055292;28;20678;-71
2022/05/01 06:00:33;;;;;;;13.07;10.40;;;;;;;;;;5054548;28;20687;-71
2022/05/01 06:03:01;;;;;;;12.88;11.13;;;;;;;;;;5054843;28;20290;-70
2022/05/01 06:05:30;;;;;;;18.83;13.18;;;;;;;;;;5054552;28;20194;-71
2022/05/01 06:07:57;;;;;;;12.75;10.23;;;;;;;;;;5055007;28;20211;-71
2022/05/01 06:10:24;;;;;;;16.73;10.73;;;;;;;;;;5054772;28;20205;-71
2022/05/01 06:12:51;;;;;;;13.10;11.20;;;;;;;;;;5053540;28;20206;-71
2022/05/01 06:15:18;;;;;;;12.88;10.45;;;;;;;;;;5054203;28;20188;-71
2022/05/01 06:17:46;;;;;;;13.93;11.50;;;;;;;;;;5054825;28;20547;-71
2022/05/01 06:20:13;;;;;;;17.60;11.00;;;;;;;;;;5054265;28;20222;-70
2022/05/01 06:22:42;;;;;;;15.80;11.05;;;;;;;;;;5054303;28;20217;-71
2022/05/01 06:25:09;;;;;;;12.88;11.10;;;;;;;;;;5054476;28;20208;-71
2022/05/01 06:27:37;;;;;;;18.33;10.43;;;;;;;;;;5054258;28;20314;-70
2022/05/01 06:30:04;;;;;;;19.13;9.77;;;;;;;;;;5054120;28;20202;-70
2022/05/01 06:32:32;;;;;;;13.75;10.23;;;;;;;;;;5054438;28;20200;-71
2022/05/01 06:34:59;;;;;;;15.43;10.30;;;;;;;;;;5054335;28;20201;-70
2022/05/01 06:37:26;;;;;;;13.27;10.18;;;;;;;;;;5053880;28;20234;-70
2022/05/01 06:39:55;;;;;;;13.80;11.02;;;;;;;;;;5054245;28;20209;-70
2022/05/01 06:42:22;;;;;;;15.70;11.05;;;;;;;;;;5053788;28;20220;-70
2022/05/01 06:44:49;;;;;;;16.10;11.35;;;;;;;;;;5053400;28;20296;-71
2022/05/01 06:47:16;;;;;;;14.35;10.85;;;;;;;;;;5054003;28;20194;-71
2022/05/01 06:49:44;;;;;;;12.70;10.25;;;;;;;;;;5054011;28;20208;-71
2022/05/01 06:52:11;;;;;;;13.10;10.00;;;;;;;;;;5054020;28;20727;-70
2022/05/01 06:54:39;;;;;;;12.93;10.82;;;;;;;;;;5053957;28;20290;-71
2022/05/01 06:57:08;;;;;;;13.48;11.63;;;;;;;;;;5054043;28;20205;-71
2022/05/01 06:59:35;;;;;;;14.10;9.93;;;;;;;;;;5053559;28;20312;-70
2022/05/01 07:02:02;;;;;;;15.37;10.63;;;;;;;;;;5053779;28;20301;-73
2022/05/01 07:04:29;;;;;;;13.48;10.00;;;;;;;;;;5053715;28;20503;-65
2022/05/01 07:06:57;;;;;;;11.05;9.55;;;;;;;;;;5053797;28;20206;-71
2022/05/01 07:09:24;;;;;;;13.90;9.43;;;;;;;;;;5054536;28;20205;-70
2022/05/01 07:11:51;;;;;;;14.43;11.00;;;;;;;;;;5053789;28;20447;-70
2022/05/01 07:14:19;;;;;;;15.20;9.60;;;;;;;;;;5053270;28;20532;-68
2022/05/01 07:16:48;;;;;;;14.00;10.20;;;;;;;;;;5053582;28;20800;-77
2022/05/01 07:19:15;;;;;;;13.63;10.27;;;;;;;;;;5053284;28;20706;-77
2022/05/01 07:21:42;;;;;;;16.17;10.00;;;;;;;;;;5053529;28;20202;-75
2022/05/01 07:24:09;;;;;;;14.00;11.20;;;;;;;;;;5052704;28;20437;-75
2022/05/01 07:26:36;;;;;;;14.43;10.73;;;;;;;;;;5053151;28;20203;-76
2022/05/01 07:29:04;;;;;;;13.48;9.90;;;;;;;;;;5053229;28;20455;-76
2022/05/01 07:31:33;;;;;;;12.70;10.43;;;;;;;;;;5053159;28;20199;-77
2022/05/01 07:34:00;;;;;;;17.00;9.10;;;;;;;;;;5053398;28;20459;-76
2022/05/01 07:36:28;;;;;;;12.03;9.80;;;;;;;;;;5053261;28;20449;-76
2022/05/01 07:38:55;;;;;;;13.77;9.60;;;;;;;;;;5053534;28;20469;-75
2022/05/01 07:41:22;;;;;;;14.00;9.95;;;;;;;;;;5053155;28;20441;-76
2022/05/01 07:43:50;;;;;;;12.90;9.57;;;;;;;;;;5053095;28;20231;-76
2022/05/01 07:46:17;;;;;;;13.13;9.70;;;;;;;;;;5052887;28;20191;-76
2022/05/01 07:48:45;;;;;;;13.20;9.70;;;;;;;;;;5052994;28;20449;-77
2022/05/01 07:51:13;;;;;;;13.10;9.90;;;;;;;;;;5053266;28;20441;-76
2022/05/01 07:53:40;;;;;;;10.87;8.30;;;;;;;;;;5052907;28;20499;-75
2022/05/01 07:56:07;;;;;;;12.50;9.17;;;;;;;;;;5053546;28;20443;-76
2022/05/01 07:58:35;;;;;;;15.70;9.77;;;;;;;;;;5053232;28;20454;-76
2022/05/01 08:01:03;;;;;;;11.00;8.90;;;;;;;;;;5052605;28;20484;-75
2022/05/01 08:06:17;;;;;;;16.73;8.30;;;;;;;;;;5053107;28;20397;-77
2022/05/01 08:08:44;;;;;;;15.73;10.00;;;;;;;;;;5053201;28;20450;-77
2022/05/01 08:11:13;;;;;;;11.37;8.93;;;;;;;;;;5052732;28;20448;-76
2022/05/01 08:13:41;;;;;;;14.53;8.33;;;;;;;;;;5052561;28;20507;-77
2022/05/01 08:16:08;;;;;;;14.33;9.00;;;;;;;;;;5052684;28;20524;-77
2022/05/01 08:21:22;;;;;;;11.30;8.27;;;;;;;;;;5052566;28;20405;-76
2022/05/01 08:23:49;;;;;;;8.87;7.80;;;;;;;;;;5052844;28;20438;-76
2022/05/01 08:26:18;;;;;;;11.37;8.20;;;;;;;;;;5052999;28;20434;-77
2022/05/01 08:28:45;;;;;;;16.30;8.07;;;;;;;;;;5053191;28;20491;-77
2022/05/01 08:31:13;;;;;;;10.80;7.90;;;;;;;;;;5052610;28;20450;-77
2022/05/01 08:33:40;;;;;;;9.23;8.20;;;;;;;;;;5052529;28;20449;-78
2022/05/01 08:36:08;;;;;;;7.17;6.43;;;;;;;;;;5054176;28;20446;-77
2022/05/01 08:38:37;;;;;;;11.33;7.73;;;;;;;;;;5056378;28;20476;-78
2022/05/01 08:41:05;;;;;;;9.97;7.53;;;;;;;;;;5056543;28;20489;-78
2022/05/01 08:43:32;;;;;;;8.43;7.53;;;;;;;;;;5056464;28;20448;-78
2022/05/01 08:46:10;;;;;;;9.03;7.60;;;;;;;;;;5055865;28;20448;-78
2022/05/01 08:48:40;;;;;;;9.30;7.47;;;;;;;;;;5056779;28;20445;-78
2022/05/01 08:51:08;;;;;;;8.30;6.70;;;;;;;;;;5056235;28;20459;-76
2022/05/01 08:53:38;;;;;;;13.50;7.50;;;;;;;;;;5056080;28;20453;-77
2022/05/01 08:56:07;;;;;;;9.90;7.43;;;;;;;;;;5056533;28;20491;-77
2022/05/01 08:58:35;;;;;;;12.97;7.30;;;;;;;;;;5056286;28;20441;-79
2022/05/01 09:01:02;;;;;;;7.20;6.50;;;;;;;;;;5055895;28;20474;-75
2022/05/01 09:03:30;;;;;;;8.97;6.63;;;;;;;;;;5055912;28;20436;-77
2022/05/01 09:05:57;;;;;;;9.50;7.37;;;;;;;;;;5055749;28;20936;-77
2022/05/01 09:08:26;;;;;;;7.73;6.83;;;;;;;;;;5056016;28;20439;-77
2022/05/01 09:10:54;;;;;;;7.80;6.57;;;;;;;;;;5055983;28;20490;-76
2022/05/01 09:13:24;;;;;;;8.27;6.50;;;;;;;;;;5055565;28;20980;-76
2022/05/01 09:15:51;;;;;;;8.00;6.73;;;;;;;;;;5056067;28;20844;-77
2022/05/01 09:18:19;;;;;;;6.50;5.80;;;;;;;;;;5055354;28;20446;-77
2022/05/01 09:21:02;;;;;;;7.60;5.20;;;;;;;;;;5055402;28;20509;-77
2022/05/01 09:23:37;;;;;;;6.13;5.43;;;;;;;;;;5055346;28;21014;-77
2022/05/01 09:26:06;;;;;;;7.87;6.40;;;;;;;;;;5056206;28;20434;-77
2022/05/01 09:28:33;;;;;;;6.53;5.47;;;;;;;;;;5055249;28;20525;-77
2022/05/01 09:31:00;;;;;;;7.50;5.17;;;;;;;;;;5055325;28;20954;-77
2022/05/01 09:33:27;;;;;;;8.27;7.03;;;;;;;;;;5055496;28;20525;-78
2022/05/01 09:35:55;;;;;;;6.07;5.47;;;;;;;;;;5055222;28;20451;-75
2022/05/01 09:38:23;;;;;;;5.80;4.63;;;;;;;;;;5054877;28;20566;-76
2022/05/01 09:40:50;;;;;;;7.13;5.83;;;;;;;;;;5055073;28;20573;-75
2022/05/01 09:43:35;;;;;;;7.30;6.60;;;;;;;;;;5055381;28;20448;-77
2022/05/01 09:46:12;;;;;;;8.37;5.97;;;;;;;;;;5055643;28;20468;-76
2022/05/01 09:48:39;;;;;;;8.17;7.00;;;;;;;;;;5054860;28;20538;-77
2022/05/01 09:51:15;;;;;;;6.17;5.50;;;;;;;;;;5055287;28;20442;-76
2022/05/01 09:53:42;;;;;;;6.50;5.83;;;;;;;;;;5055277;28;20426;-77
2022/05/01 09:56:09;;;;;;;6.80;5.97;;;;;;;;;;5055582;28;20442;-77
2022/05/01 09:58:40;;;;;;;7.97;5.73;;;;;;;;;;5054832;28;20541;-77
2022/05/01 10:01:11;;;;;;;8.03;6.83;;;;;;;;;;5055500;28;20470;-77
2022/05/01 10:03:41;;;;;;;11.63;5.73;;;;;;;;;;5053819;28;20527;-77
2022/05/01 10:06:10;;;;;;;6.33;5.73;;;;;;;;;;5054782;28;20444;-77
2022/05/01 10:08:38;;;;;;;10.73;6.80;;;;;;;;;;5054575;28;20434;-78
2022/05/01 10:11:06;;;;;;;7.30;6.13;;;;;;;;;;5054450;28;20454;-76
2022/05/01 10:13:34;;;;;;;6.60;5.97;;;;;;;;;;5054524;28;20445;-76
2022/05/01 10:16:03;;;;;;;7.43;6.20;;;;;;;;;;5054152;28;20478;-76
2022/05/01 10:18:31;;;;;;;6.83;5.40;;;;;;;;;;5054795;28;20450;-76
2022/05/01 10:20:58;;;;;;;7.00;6.30;;;;;;;;;;5054662;28;20574;-76
2022/05/01 10:23:26;;;;;;;8.20;6.93;;;;;;;;;;5054465;28;20454;-76
2022/05/01 10:25:54;;;;;;;6.97;5.77;;;;;;;;;;5054756;28;20442;-76
2022/05/01 10:28:31;;;;;;;8.37;5.80;;;;;;;;;;5053891;28;20431;-76
2022/05/01 10:33:56;;;;;;;6.93;5.63;;;;;;;;;;5054203;28;20394;-76
2022/05/01 10:36:29;;;;;;;6.93;6.00;;;;;;;;;;5054105;28;20943;-76
2022/05/01 10:39:03;;;;;;;5.57;5.07;;;;;;;;;;5054404;28;20532;-76
2022/05/01 10:41:33;;;;;;;10.23;6.30;;;;;;;;;;5053775;28;20463;-76
2022/05/01 10:44:01;;;;;;;7.33;6.13;;;;;;;;;;5053916;28;20470;-76
2022/05/01 10:46:28;;;;;;;11.60;7.73;;;;;;;;;;5054100;28;20453;-76
2022/05/01 10:49:01;;;;;;;7.27;6.20;;;;;;;;;;5053443;28;20446;-75
2022/05/01 10:51:44;;;;;;;12.07;7.00;;;;;;;;;;5053961;28;20447;-76
2022/05/01 10:54:30;;;;;;;8.83;6.10;;;;;;;;;;5053532;28;20968;-75
2022/05/01 10:57:07;;;;;;;6.13;5.20;;;;;;;;;;5053469;28;20447;-75
2022/05/01 10:59:36;;;;;;;6.47;5.80;;;;;;;;;;5053194;28;20968;-77
2022/05/01 11:02:06;;;;;;;10.50;6.60;;;;;;;;;;5053768;28;20439;-77
2022/05/01 11:04:41;;;;;;;6.40;5.80;;;;;;;;;;5053279;28;20943;-76
2022/05/01 11:07:10;;;;;;;6.30;5.70;;;;;;;;;;5053628;28;20525;-76
2022/05/01 11:09:38;;;;;;;8.83;5.50;;;;;;;;;;5052908;28;20438;-76
2022/05/01 11:12:08;;;;;;;8.47;5.40;;;;;;;;;;5053809;28;20904;-76
2022/05/01 11:14:35;;;;;;;9.23;5.77;;;;;;;;;;5053208;28;20937;-75
2022/05/01 11:17:03;;;;;;;7.10;5.47;;;;;;;;;;5053423;28;20503;-76
2022/05/01 11:19:32;;;;;;;8.00;6.57;;;;;;;;;;5053037;28;20538;-76
2022/05/01 11:22:00;;;;;;;7.37;5.77;;;;;;;;;;5053027;28;20472;-77
2022/05/01 11:24:48;;;;;;;11.70;8.93;;;;;;;;;;5053141;28;21008;-76
2022/05/01 11:27:16;;;;;;;12.20;8.97;;;;;;;;;;5049958;28;20450;-75
2022/05/01 11:30:02;;;;;;;7.20;6.13;;;;;;;;;;5053075;28;20438;-75
2022/05/01 11:32:43;;;;;;;10.20;8.30;;;;;;;;;;5052878;28;20529;-75
2022/05/01 11:35:11;;;;;;;11.23;10.07;;;;;;;;;;5052894;28;20415;-75
2022/05/01 11:37:49;;;;;;;10.13;7.70;;;;;;;;;;5052662;28;20480;-75
2022/05/01 11:40:17;;;;;;;6.70;6.00;;;;;;;;;;5053056;28;20477;-75
2022/05/01 11:42:45;;;;;;;13.27;10.60;;;;;;;;;;5053491;28;20442;-76
2022/05/01 11:45:12;;;;;;;12.97;10.80;;;;;;;;;;5051620;28;20504;-77
2022/05/01 11:47:43;;;;;;;7.33;6.30;;;;;;;;;;5052763;28;20450;-77
2022/05/01 11:50:19;;;;;;;8.90;7.27;;;;;;;;;;5052849;28;20435;-76
2022/05/01 11:52:49;;;;;;;10.30;7.40;;;;;;;;;;5053115;28;20447;-76
2022/05/01 11:55:20;;;;;;;11.40;7.30;;;;;;;;;;5052881;28;20921;-77
2022/05/01 12:03:29;;;;;;;7.37;6.67;;;;;;;;;;5052835;28;20888;-77
2022/05/01 12:05:56;;;;;;;7.07;6.37;;;;;;;;;;5052422;28;20927;-77
2022/05/01 12:08:23;;;;;;;5.70;5.20;;;;;;;;;;5052600;28;20438;-77
2022/05/01 12:10:52;;;;;;;8.17;6.20;;;;;;;;;;5053634;28;20532;-75
2022/05/01 12:13:20;;;;;;;6.23;5.63;;;;;;;;;;5056885;28;20452;-75
2022/05/01 12:15:48;;;;;;;6.37;5.77;;;;;;;;;;5057064;28;20846;-76
2022/05/01 12:18:15;;;;;;;7.53;6.53;;;;;;;;;;5056759;28;20508;-76
2022/05/01 12:20:43;;;;;;;7.37;6.60;;;;;;;;;;5056246;28;20487;-76
2022/05/01 12:23:14;;;;;;;10.70;5.83;;;;;;;;;;5056531;28;20446;-76
2022/05/01 12:25:42;;;;;;;10.87;6.57;;;;;;;;;;5056442;28;20486;-76
2022/05/01 12:28:15;;;;;;;7.60;6.23;;;;;;;;;;5056625;28;20962;-75
2022/05/01 12:30:43;;;;;;;6.73;6.00;;;;;;;;;;5055862;28;20955;-74
2022/05/01 12:33:18;;;;;;;7.93;6.20;;;;;;;;;;5056671;28;20446;-75
2022/05/01 12:35:53;;;;;;;7.40;6.70;;;;;;;;;;5056001;28;20902;-74
2022/05/01 12:38:20;;;;;;;13.80;8.40;;;;;;;;;;5056226;28;20489;-75
2022/05/01 12:43:52;;;;;;;7.30;6.60;;;;;;;;;;5056116;28;20928;-75
2022/05/01 12:46:23;;;;;;;7.67;6.57;;;;;;;;;;5055820;28;20472;-75
2022/05/01 12:48:50;;;;;;;9.13;6.90;;;;;;;;;;5056051;28;20552;-75
2022/05/01 12:51:18;;;;;;;8.33;6.00;;;;;;;;;;5055761;28;20442;-74
2022/05/01 12:53:51;;;;;;;6.80;6.20;;;;;;;;;;5056108;28;20439;-75
2022/05/01 12:56:21;;;;;;;7.63;6.80;;;;;;;;;;5055846;28;20422;-75
2022/05/01 12:58:50;;;;;;;7.00;5.90;;;;;;;;;;5055878;28;20517;-75
2022/05/01 13:01:26;;;;;;;9.20;6.87;;;;;;;;;;5055782;28;20520;-74
2022/05/01 13:03:54;;;;;;;10.03;6.50;;;;;;;;;;5055964;28;20931;-75
2022/05/01 13:06:21;;;;;;;7.10;5.90;;;;;;;;;;5055631;28;20446;-74
2022/05/01 13:08:49;;;;;;;7.57;6.70;;;;;;;;;;5055812;28;20451;-75
2022/05/01 13:11:23;;;;;;;7.53;6.57;;;;;;;;;;5055218;28;20454;-75
2022/05/01 13:13:53;;;;;;;7.60;6.73;;;;;;;;;;5055439;28;20438;-74
2022/05/01 13:16:22;;;;;;;9.13;7.03;;;;;;;;;;5055606;28;20867;-75
2022/05/01 13:18:51;;;;;;;11.50;7.37;;;;;;;;;;5054969;28;20493;-75
2022/05/01 13:21:18;;;;;;;10.97;7.27;;;;;;;;;;5054469;28;20473;-75
2022/05/01 13:23:46;;;;;;;10.37;7.97;;;;;;;;;;5055278;28;20932;-75
2022/05/01 13:26:15;;;;;;;8.97;6.57;;;;;;;;;;5054849;28;20446;-75
2022/05/01 13:28:44;;;;;;;7.63;6.23;;;;;;;;;;5055192;28;20471;-75
2022/05/01 13:31:13;;;;;;;6.83;6.23;;;;;;;;;;5054788;28;20456;-75
2022/05/01 13:33:41;;;;;;;7.90;6.40;;;;;;;;;;5054791;28;21040;-76
2022/05/01 13:36:08;;;;;;;10.77;6.93;;;;;;;;;;5055294;28;20477;-75
2022/05/01 13:38:35;;;;;;;7.50;6.30;;;;;;;;;;5055423;28;20477;-75
2022/05/01 13:46:34;;;;;;;13.73;8.73;;;;;;;;;;5054885;28;20942;-75
2022/05/01 13:49:01;;;;;;;7.13;6.53;;;;;;;;;;5055138;28;20447;-75
2022/05/01 13:51:29;;;;;;;7.67;6.00;;;;;;;;;;5054126;28;20481;-74
2022/05/01 13:53:56;;;;;;;9.00;6.37;;;;;;;;;;5054641;28;20456;-74
2022/05/01 13:56:23;;;;;;;11.53;8.30;;;;;;;;;;5054697;28;20452;-74
2022/05/01 13:58:51;;;;;;;9.93;8.90;;;;;;;;;;5054955;28;20454;-75
2022/05/01 14:01:18;;;;;;;9.30;8.37;;;;;;;;;;5054913;28;20477;-75
2022/05/01 14:03:46;;;;;;;7.40;6.37;;;;;;;;;;5054732;28;20534;-75
2022/05/01 14:06:14;;;;;;;10.97;8.03;;;;;;;;;;5054481;28;20442;-74
2022/05/01 14:08:41;;;;;;;8.27;7.40;;;;;;;;;;5055236;28;20524;-75
2022/05/01 14:11:08;;;;;;;10.27;9.17;;;;;;;;;;5054112;28;20449;-74
2022/05/01 14:13:37;;;;;;;13.20;7.57;;;;;;;;;;5053948;28;20486;-74
2022/05/01 14:16:05;;;;;;;9.90;8.90;;;;;;;;;;5053908;28;20484;-74
2022/05/01 14:18:33;;;;;;;10.13;9.10;;;;;;;;;;5054631;28;20456;-74
2022/05/01 14:21:02;;;;;;;8.80;7.90;;;;;;;;;;5054144;28;20484;-75
2022/05/01 14:23:29;;;;;;;8.63;7.10;;;;;;;;;;5054425;28;20435;-74
2022/05/01 14:25:57;;;;;;;8.00;6.90;;;;;;;;;;5054185;28;20441;-74
2022/05/01 14:28:24;;;;;;;7.33;6.30;;;;;;;;;;5054223;28;20445;-75
2022/05/01 14:30:56;;;;;;;7.50;6.70;;;;;;;;;;5053734;28;20451;-74
2022/05/01 14:33:27;;;;;;;10.67;8.47;;;;;;;;;;5053536;28;20430;-75
2022/05/01 14:35:55;;;;;;;7.93;7.13;;;;;;;;;;5054069;28;20434;-74
2022/05/01 14:38:27;;;;;;;9.23;6.30;;;;;;;;;;5054003;28;20828;-75
2022/05/01 14:40:57;;;;;;;7.57;6.77;;;;;;;;;;5053508;28;20915;-74
2022/05/01 14:43:25;;;;;;;11.50;7.50;;;;;;;;;;5053800;28;20456;-75
2022/05/01 14:45:56;;;;;;;7.50;6.73;;;;;;;;;;5054215;28;20496;-73
2022/05/01 14:48:34;;;;;;;7.47;6.43;;;;;;;;;;5053479;28;20536;-75
2022/05/01 14:51:02;;;;;;;9.47;6.67;;;;;;;;;;5053395;28;20422;-74
2022/05/01 14:53:31;;;;;;;7.83;7.03;;;;;;;;;;5053260;28;20440;-74
2022/05/01 14:55:59;;;;;;;9.93;7.80;;;;;;;;;;5054169;28;20497;-75
2022/05/01 15:06:45;;;;;;;7.50;5.90;;;;;;;;;;5053263;28;20406;-74
2022/05/01 15:09:14;;;;;;;8.23;7.43;;;;;;;;;;5053280;28;21014;-74
2022/05/01 15:11:41;;;;;;;7.33;6.60;;;;;;;;;;5053050;28;20442;-74
2022/05/01 15:14:08;;;;;;;7.40;6.27;;;;;;;;;;5052851;28;20452;-74
2022/05/01 15:16:38;;;;;;;7.70;6.70;;;;;;;;;;5052782;28;20434;-74
2022/05/01 15:19:12;;;;;;;7.27;6.40;;;;;;;;;;5053029;28;20454;-74
2022/05/01 15:24:33;;;;;;;10.63;6.73;;;;;;;;;;5053215;28;20426;-74
2022/05/01 15:27:05;;;;;;;7.27;6.40;;;;;;;;;;5053011;28;20425;-74
2022/05/01 15:29:36;;;;;;;9.07;7.13;;;;;;;;;;5053712;28;20796;-74
2022/05/01 15:32:07;;;;;;;9.93;6.80;;;;;;;;;;5052780;28;20440;-74
2022/05/01 15:34:35;;;;;;;7.93;6.93;;;;;;;;;;5053793;28;20463;-75
2022/05/01 15:37:03;;;;;;;8.53;6.23;;;;;;;;;;5052965;28;20465;-74
2022/05/01 15:39:36;;;;;;;8.53;7.40;;;;;;;;;;5053010;28;20512;-75
2022/05/01 15:42:06;;;;;;;6.50;5.90;;;;;;;;;;5053606;28;20498;-74